Time;durP1;ratioP1;P1;durP2;ratioP2;P2;SDS_P1;SDS_P2;PMS_P1;PMS_P2;Temp;Humidity;BMP_temperature;BMP_pressure;BME280_temperature;BME280_humidity;BME280_pressure;Samples;Min_cycle;Max_cycle;Signal;HPM_P1;HPM_P2
2023/07/06 00:01:04;;;;;;;5.97;3.22;;;;;;;14.30;100.00;101325.19;5059999;28;20024;-81
2023/07/06 00:03:31;;;;;;;6.40;3.25;;;;;;;14.21;100.00;101321.94;5053669;28;20560;-81
2023/07/06 00:05:57;;;;;;;4.30;3.08;;;;;;;14.00;100.00;101323.38;5054934;28;20040;-81
2023/07/06 00:08:23;;;;;;;6.55;3.45;;;;;;;14.15;100.00;101326.31;5048537;28;20040;-81
2023/07/06 00:10:51;;;;;;;4.55;3.00;;;;;;;14.15;100.00;101329.13;5052792;28;20028;-81
2023/07/06 00:13:20;;;;;;;6.35;3.67;;;;;;;14.33;100.00;101332.84;5048722;28;20044;-81
2023/07/06 00:15:48;;;;;;;7.38;3.75;;;;;;;14.17;100.00;101327.53;5038637;28;20356;-81
2023/07/06 00:18:15;;;;;;;5.07;3.70;;;;;;;14.36;100.00;101334.88;5051092;28;20381;-81
2023/07/06 00:20:40;;;;;;;7.25;3.45;;;;;;;14.21;100.00;101327.56;5058143;28;20040;-81
2023/07/06 00:23:08;;;;;;;7.00;3.60;;;;;;;14.15;100.00;101329.94;5063854;28;20039;-80
2023/07/06 00:25:34;;;;;;;6.60;3.90;;;;;;;14.21;100.00;101331.19;5059987;28;20028;-81
2023/07/06 00:28:01;;;;;;;6.65;4.00;;;;;;;14.11;100.00;101328.28;5060878;28;20526;-81
2023/07/06 00:33:17;;;;;;;5.85;3.55;;;;;;;14.29;100.00;101329.19;5058237;28;20480;-81
2023/07/06 00:35:44;;;;;;;5.75;3.38;;;;;;;14.25;100.00;101331.19;5051727;28;20079;-81
2023/07/06 00:38:14;;;;;;;9.15;4.03;;;;;;;14.22;100.00;101335.59;5059704;28;20380;-80
2023/07/06 00:40:57;;;;;;;6.18;3.53;;;;;;;14.30;100.00;101333.66;5060834;28;20055;-80
2023/07/06 00:43:27;;;;;;;8.30;4.25;;;;;;;14.03;100.00;101338.69;5052738;28;20028;-81
2023/07/06 00:45:55;;;;;;;9.52;3.70;;;;;;;14.03;100.00;101331.03;5051745;28;20543;-81
2023/07/06 00:48:26;;;;;;;7.72;3.35;;;;;;;14.18;100.00;101331.16;5057586;28;20044;-81
2023/07/06 00:51:00;;;;;;;5.57;3.42;;;;;;;14.29;100.00;101334.81;5061114;28;20036;-81
2023/07/06 00:53:32;;;;;;;5.38;4.05;;;;;;;14.11;100.00;101336.75;5055151;28;20032;-81
2023/07/06 00:55:58;;;;;;;10.05;4.13;;;;;;;14.10;100.00;101340.75;5058136;28;20032;-81
2023/07/06 00:58:37;;;;;;;9.23;4.47;;;;;;;14.19;100.00;101342.03;5055198;28;20037;-82
2023/07/06 01:01:06;;;;;;;6.22;3.50;;;;;;;14.17;100.00;101332.34;5063479;28;20036;-81
2023/07/06 01:03:43;;;;;;;6.45;3.55;;;;;;;14.21;100.00;101344.44;5056359;28;20155;-81
2023/07/06 01:06:13;;;;;;;5.00;3.38;;;;;;;14.15;100.00;101343.19;5073035;28;20031;-82
2023/07/06 01:08:39;;;;;;;5.53;3.67;;;;;;;14.20;100.00;101340.00;5061401;28;20676;-81
2023/07/06 01:11:08;;;;;;;7.25;4.30;;;;;;;14.14;100.00;101348.00;5044478;28;20047;-81
2023/07/06 01:13:33;;;;;;;5.65;3.45;;;;;;;14.12;100.00;101347.59;5060633;28;20512;-81
2023/07/06 01:16:08;;;;;;;8.77;4.80;;;;;;;13.97;100.00;101351.50;5049320;28;20036;-81
2023/07/06 01:18:52;;;;;;;8.15;3.75;;;;;;;14.12;100.00;101341.16;5059689;28;20035;-80
2023/07/06 01:21:31;;;;;;;13.45;4.15;;;;;;;14.12;100.00;101346.78;5068628;28;20024;-80
2023/07/06 01:24:18;;;;;;;6.68;3.80;;;;;;;14.12;100.00;101352.41;5061751;28;20020;-80
2023/07/06 01:26:50;;;;;;;8.18;3.90;;;;;;;14.15;100.00;101348.84;5072210;28;20035;-80
2023/07/06 01:29:39;;;;;;;8.15;4.25;;;;;;;14.12;100.00;101346.78;5045682;28;20044;-80
2023/07/06 01:32:08;;;;;;;7.40;4.40;;;;;;;14.00;100.00;101351.53;5070011;28;20043;-80
2023/07/06 01:34:47;;;;;;;11.27;4.03;;;;;;;14.17;100.00;101346.44;5058139;28;20107;-80
2023/07/06 01:37:15;;;;;;;6.57;4.28;;;;;;;13.96;100.00;101344.28;5058886;28;20072;-80
2023/07/06 01:39:40;;;;;;;6.82;4.72;;;;;;;13.99;100.00;101349.91;5071256;28;20037;-80
2023/07/06 01:42:12;;;;;;;8.00;4.00;;;;;;;13.99;100.00;101354.72;5047523;28;20036;-80
2023/07/06 01:44:45;;;;;;;8.63;3.95;;;;;;;14.14;100.00;101350.03;5065984;28;20039;-80
2023/07/06 01:47:11;;;;;;;5.57;3.78;;;;;;;13.95;100.00;101343.44;5058013;28;20029;-80
2023/07/06 01:49:38;;;;;;;8.18;4.85;;;;;;;13.94;100.00;101347.47;5057121;28;20404;-80
2023/07/06 01:52:13;;;;;;;11.07;4.30;;;;;;;13.97;100.00;101346.66;5060615;28;20416;-80
2023/07/06 01:55:11;;;;;;;6.65;3.90;;;;;;;14.10;100.00;101354.81;5048821;28;20032;-80
2023/07/06 01:58:26;;;;;;;4.75;3.53;;;;;;;14.07;100.00;101352.78;5057045;28;20035;-80
2023/07/06 02:00:59;;;;;;;13.23;4.43;;;;;;;14.01;100.00;101353.13;5039192;28;20366;-80
2023/07/06 02:03:26;;;;;;;16.35;4.85;;;;;;;14.01;100.00;101353.13;5057377;28;20103;-80
2023/07/06 02:05:52;;;;;;;8.98;4.75;;;;;;;13.99;100.00;101346.28;5054008;28;20370;-80
2023/07/06 02:08:18;;;;;;;7.05;4.00;;;;;;;13.92;100.00;101341.41;5058229;28;20341;-80
2023/07/06 02:10:44;;;;;;;8.55;3.80;;;;;;;13.97;100.00;101341.03;5057488;28;20110;-79
2023/07/06 02:13:10;;;;;;;8.27;3.83;;;;;;;14.01;100.00;101336.25;5048912;28;20135;-80
2023/07/06 02:15:35;;;;;;;6.22;3.72;;;;;;;14.15;100.00;101343.19;5050964;28;20199;-79
2023/07/06 02:18:02;;;;;;;9.07;3.90;;;;;;;14.20;100.00;101337.19;5053529;28;20028;-80
2023/07/06 02:20:27;;;;;;;5.97;3.33;;;;;;;14.26;100.00;101338.44;5058668;28;20028;-80
2023/07/06 02:22:53;;;;;;;8.85;3.95;;;;;;;14.23;100.00;101325.97;5053323;28;20407;-80
2023/07/06 02:25:20;;;;;;;9.95;4.25;;;;;;;14.21;100.00;101333.19;5051465;28;20498;-80
2023/07/06 02:27:46;;;;;;;7.22;3.70;;;;;;;14.22;100.00;101329.16;5057414;28;20043;-80
2023/07/06 02:30:12;;;;;;;12.18;4.13;;;;;;;14.24;100.00;101340.84;5050814;28;20050;-80
2023/07/06 02:32:39;;;;;;;7.97;3.28;;;;;;;14.16;100.00;101336.34;5054919;28;20032;-80
2023/07/06 02:35:06;;;;;;;9.27;3.35;;;;;;;14.32;100.00;101338.88;5049040;28;20067;-80
2023/07/06 02:37:32;;;;;;;11.25;3.92;;;;;;;14.24;100.00;101333.19;5050297;28;20089;-80
2023/07/06 02:39:58;;;;;;;5.68;3.65;;;;;;;14.15;100.00;101337.56;5052204;28;20090;-80
2023/07/06 02:42:25;;;;;;;7.53;3.58;;;;;;;14.21;100.00;101344.44;5057435;28;20484;-80
2023/07/06 02:44:50;;;;;;;9.35;4.63;;;;;;;14.09;100.00;101333.50;5051966;28;20033;-79
2023/07/06 02:47:15;;;;;;;9.32;4.47;;;;;;;14.06;100.00;101337.88;5043679;28;20064;-80
2023/07/06 02:49:41;;;;;;;6.55;3.75;;;;;;;14.09;100.00;101336.31;5055710;28;20048;-80
2023/07/06 02:52:07;;;;;;;6.93;3.65;;;;;;;14.05;100.00;101329.84;5053405;28;20041;-79
2023/07/06 02:54:32;;;;;;;7.78;5.45;;;;;;;14.08;100.00;101331.88;5059843;28;20048;-79
2023/07/06 02:57:00;;;;;;;7.70;3.92;;;;;;;14.15;100.00;101334.75;5051545;28;20472;-80
2023/07/06 02:59:29;;;;;;;11.05;3.78;;;;;;;14.24;100.00;101346.47;5058390;28;20439;-80
2023/07/06 03:01:55;;;;;;;8.73;3.35;;;;;;;14.29;100.00;101339.66;5054752;28;20033;-80
2023/07/06 03:04:21;;;;;;;8.35;3.53;;;;;;;14.25;100.00;101345.25;5057663;28;20086;-80
2023/07/06 03:06:46;;;;;;;6.47;4.00;;;;;;;14.28;100.00;101347.31;5059060;28;20965;-79
2023/07/06 03:09:11;;;;;;;6.05;4.28;;;;;;;14.34;100.00;101347.75;5053701;28;20438;-79
2023/07/06 03:11:38;;;;;;;9.27;3.58;;;;;;;14.32;100.00;101345.31;5062743;28;20075;-80
2023/07/06 03:14:04;;;;;;;6.68;3.83;;;;;;;14.10;100.00;101337.91;5069159;28;20481;-79
2023/07/06 03:16:39;;;;;;;14.05;4.82;;;;;;;14.12;100.00;101343.97;5058368;28;20028;-79
2023/07/06 03:19:09;;;;;;;9.27;4.60;;;;;;;14.07;100.00;101338.72;5054921;28;20028;-80
2023/07/06 03:21:37;;;;;;;11.43;4.38;;;;;;;14.12;100.00;101346.78;5057764;28;20144;-80
2023/07/06 03:24:02;;;;;;;10.63;4.03;;;;;;;14.03;100.00;101355.56;5056212;28;20052;-80
2023/07/06 03:26:29;;;;;;;7.28;4.82;;;;;;;14.04;100.00;101351.56;5049450;28;20032;-80
2023/07/06 03:28:55;;;;;;;9.57;4.38;;;;;;;14.15;100.00;101357.28;5054595;28;20046;-79
2023/07/06 03:31:21;;;;;;;8.60;3.92;;;;;;;14.01;100.00;101355.94;5049427;28;20036;-80
2023/07/06 03:33:47;;;;;;;7.35;3.55;;;;;;;14.10;100.00;101361.25;5057578;28;20063;-79
2023/07/06 03:36:12;;;;;;;7.05;3.55;;;;;;;14.10;100.00;101363.25;5053980;28;20039;-79
2023/07/06 03:38:38;;;;;;;7.28;4.50;;;;;;;14.14;100.00;101369.72;5055779;28;20032;-80
2023/07/06 03:41:06;;;;;;;6.82;3.88;;;;;;;14.15;100.00;101357.28;5068558;28;20556;-80
2023/07/06 03:43:31;;;;;;;9.05;4.85;;;;;;;14.19;100.00;101355.31;5047966;28;20046;-80
2023/07/06 03:45:57;;;;;;;14.93;4.22;;;;;;;14.11;100.00;101350.81;5055606;28;20416;-79
2023/07/06 03:48:22;;;;;;;10.65;4.85;;;;;;;14.11;100.00;101356.44;5055877;28;20182;-80
2023/07/06 03:50:52;;;;;;;6.50;3.88;;;;;;;14.19;100.00;101356.09;5074056;28;20048;-79
2023/07/06 03:53:19;;;;;;;6.13;4.20;;;;;;;14.14;100.00;101358.47;5053935;28;20036;-79
2023/07/06 03:55:44;;;;;;;7.55;4.38;;;;;;;14.07;100.00;101355.59;5057712;28;20060;-80
2023/07/06 03:58:10;;;;;;;13.65;4.68;;;;;;;14.13;100.00;101366.09;5051649;28;20124;-79
2023/07/06 04:00:36;;;;;;;9.68;4.68;;;;;;;14.09;100.00;101359.63;5050192;28;20091;-80
2023/07/06 04:03:05;;;;;;;8.45;4.18;;;;;;;14.14;100.00;101361.28;5057600;28;20040;-80
2023/07/06 04:05:34;;;;;;;12.40;4.35;;;;;;;13.99;100.00;101366.78;5061605;28;20507;-80
2023/07/06 04:08:03;;;;;;;8.63;4.30;;;;;;;14.07;100.00;101370.47;5060597;28;20547;-80
2023/07/06 04:10:30;;;;;;;8.57;5.07;;;;;;;14.14;100.00;101370.53;5071054;28;20032;-79
2023/07/06 04:12:56;;;;;;;13.23;4.57;;;;;;;14.11;100.00;101376.16;5057485;28;20044;-80
2023/07/06 04:15:22;;;;;;;12.20;5.32;;;;;;;14.05;100.00;101380.53;5033533;28;20063;-79
2023/07/06 04:17:47;;;;;;;12.35;4.90;;;;;;;14.00;100.00;101371.25;5048381;28;20139;-80
2023/07/06 04:20:36;;;;;;;7.22;4.50;;;;;;;14.14;100.00;101376.16;5056551;28;20090;-80
2023/07/06 04:23:03;;;;;;;12.82;5.20;;;;;;;14.19;100.00;101375.00;5063285;28;20035;-80
2023/07/06 04:25:30;;;;;;;9.25;5.00;;;;;;;14.11;100.00;101378.97;5059965;28;20063;-80
2023/07/06 04:27:57;;;;;;;8.10;4.45;;;;;;;14.13;100.00;101370.94;5048133;28;20489;-80
2023/07/06 04:30:23;;;;;;;10.90;5.38;;;;;;;14.11;100.00;101364.88;5076082;28;20543;-80
2023/07/06 04:32:49;;;;;;;14.75;6.32;;;;;;;14.14;100.00;101372.53;5055043;28;20090;-80
2023/07/06 04:35:17;;;;;;;8.27;4.82;;;;;;;14.16;100.00;101365.31;5077933;28;20499;-80
2023/07/06 04:37:46;;;;;;;8.13;4.18;;;;;;;14.27;100.00;101376.66;5054163;28;20055;-80
2023/07/06 04:40:13;;;;;;;6.75;3.67;;;;;;;14.20;100.00;101373.78;5053465;28;20134;-79
2023/07/06 04:42:42;;;;;;;16.50;5.40;;;;;;;14.31;100.00;101380.31;5057337;28;20461;-79
2023/07/06 04:45:11;;;;;;;14.75;5.30;;;;;;;14.24;100.00;101377.44;5060418;28;20418;-80
2023/07/06 04:47:38;;;;;;;8.52;4.32;;;;;;;14.30;100.00;101377.91;5058468;28;20387;-80
2023/07/06 04:50:04;;;;;;;10.93;6.30;;;;;;;14.29;100.00;101379.88;5055099;28;20076;-79
2023/07/06 04:52:31;;;;;;;14.13;5.78;;;;;;;14.27;100.00;101384.28;5071053;28;20948;-80
2023/07/06 04:54:58;;;;;;;10.40;5.25;;;;;;;14.25;100.00;101384.69;5056605;28;20024;-80
2023/07/06 04:57:23;;;;;;;8.88;4.20;;;;;;;14.21;100.00;101383.88;5060077;28;20457;-80
2023/07/06 04:59:49;;;;;;;7.40;4.15;;;;;;;14.16;100.00;101384.22;5054807;28;20556;-80
2023/07/06 05:02:15;;;;;;;11.60;4.50;;;;;;;14.27;100.00;101387.91;5055555;28;20032;-80
2023/07/06 05:04:40;;;;;;;10.23;5.28;;;;;;;14.35;100.00;101388.78;5060764;28;20043;-80
2023/07/06 05:07:12;;;;;;;9.80;4.90;;;;;;;14.44;100.00;101386.41;5062162;28;20032;-80
2023/07/06 05:09:40;;;;;;;13.02;5.25;;;;;;;14.49;100.00;101383.25;5051378;28;20123;-80
2023/07/06 05:12:07;;;;;;;18.77;6.80;;;;;;;14.52;100.00;101387.28;5073607;28;20028;-79
2023/07/06 05:14:34;;;;;;;11.35;4.97;;;;;;;14.53;100.00;101392.53;5075359;28;20097;-79
2023/07/06 05:17:00;;;;;;;12.75;6.15;;;;;;;14.54;100.00;101391.31;5055389;28;20036;-80
2023/07/06 05:19:27;;;;;;;11.68;5.43;;;;;;;14.49;100.00;101399.34;5065409;28;20028;-80
2023/07/06 05:21:55;;;;;;;15.73;4.82;;;;;;;14.57;100.00;101395.41;5057490;28;20035;-80
2023/07/06 05:24:21;;;;;;;8.75;4.88;;;;;;;14.61;100.00;101391.41;5057242;28;20024;-80
2023/07/06 05:26:47;;;;;;;10.43;4.63;;;;;;;14.62;100.00;101406.28;5055724;28;20048;-80
2023/07/06 05:29:12;;;;;;;12.77;5.00;;;;;;;14.59;100.00;101396.63;5054965;28;20047;-80
2023/07/06 05:31:37;;;;;;;12.05;4.80;;;;;;;14.70;100.00;101405.13;5054580;28;20024;-80
2023/07/06 05:34:03;;;;;;;11.00;5.00;;;;;;;14.71;100.00;101400.31;5050102;28;20032;-79
2023/07/06 05:36:28;;;;;;;11.00;5.68;;;;;;;14.69;100.00;101397.88;5052808;28;20036;-80
2023/07/06 05:38:54;;;;;;;9.82;4.72;;;;;;;14.77;100.00;101405.16;5056611;28;20646;-80
2023/07/06 05:41:19;;;;;;;10.77;5.60;;;;;;;14.87;100.00;101397.19;5045621;28;20559;-80
2023/07/06 05:43:44;;;;;;;16.30;6.35;;;;;;;14.84;100.00;101405.22;5060565;28;20037;-80
2023/07/06 05:46:10;;;;;;;11.80;5.50;;;;;;;14.96;100.00;101411.72;5057133;28;20033;-80
2023/07/06 05:48:35;;;;;;;10.60;6.03;;;;;;;14.97;100.00;101402.06;5058991;28;20507;-80
2023/07/06 05:51:01;;;;;;;13.75;4.88;;;;;;;15.04;100.00;101402.09;5053906;28;20032;-80
2023/07/06 05:53:29;;;;;;;7.22;4.50;;;;;;;15.00;100.00;101410.53;5064660;28;20584;-80
2023/07/06 05:55:54;;;;;;;10.00;3.88;;;;;;;15.09;100.00;101403.72;5058088;28;20338;-80
2023/07/06 05:58:20;;;;;;;9.20;4.85;;;;;;;15.14;100.00;101415.44;5059261;28;20037;-80
2023/07/06 06:00:45;;;;;;;18.02;5.80;;;;;;;15.23;100.00;101418.69;5072243;28;20028;-80
2023/07/06 06:03:11;;;;;;;14.93;4.68;;;;;;;15.25;100.00;101415.47;5058283;28;20111;-80
2023/07/06 06:05:39;;;;;;;12.23;4.70;;;;;;;15.29;100.00;101423.94;5052859;28;20209;-80
2023/07/06 06:08:06;;;;;;;12.32;4.32;;;;;;;15.86;100.00;101424.13;5046740;28;20020;-88
2023/07/06 06:10:33;;;;;;;9.10;4.18;;;;;;;16.49;100.00;101432.19;5057119;28;20107;-78
2023/07/06 06:12:58;;;;;;;9.15;4.35;;;;;;;17.11;100.00;101437.31;5057957;28;20052;-79
2023/07/06 06:15:24;;;;;;;15.10;5.68;;;;;;;17.20;100.00;101440.53;5051477;28;20606;-79
2023/07/06 06:17:50;;;;;;;9.27;5.13;;;;;;;17.32;100.00;101444.13;5053125;28;20139;-79
2023/07/06 06:20:16;;;;;;;6.88;3.17;;;;;;;17.39;100.00;101449.72;5060401;28;20119;-78
2023/07/06 06:22:41;;;;;;;8.18;4.22;;;;;;;17.78;100.00;101448.72;5054126;28;20044;-78
2023/07/06 06:25:07;;;;;;;11.90;4.28;;;;;;;17.24;100.00;101448.97;5068977;28;20726;-78
2023/07/06 06:27:33;;;;;;;11.32;4.90;;;;;;;17.42;100.00;101454.56;5054148;28;20026;-77
2023/07/06 06:29:58;;;;;;;11.40;5.10;;;;;;;17.07;100.00;101461.97;5052996;28;20485;-77
2023/07/06 06:32:25;;;;;;;10.00;5.53;;;;;;;17.20;100.00;101463.16;5058684;28;20107;-77
2023/07/06 06:34:50;;;;;;;8.63;4.18;;;;;;;18.02;100.00;101469.63;5052606;28;20798;-77
2023/07/06 06:37:16;;;;;;;17.08;5.72;;;;;;;18.11;100.00;101466.31;5056428;28;20020;-77
2023/07/06 06:39:42;;;;;;;12.48;5.95;;;;;;;17.48;100.00;101484.06;5055282;28;20032;-77
2023/07/06 06:42:08;;;;;;;9.55;3.47;;;;;;;17.95;100.00;101489.50;5058302;28;20056;-77
2023/07/06 06:44:35;;;;;;;9.85;3.38;;;;;;;17.85;100.00;101485.50;5058113;28;20036;-77
2023/07/06 06:47:04;;;;;;;6.28;3.63;;;;;;;17.91;100.00;101486.69;5053932;28;20067;-77
2023/07/06 06:49:30;;;;;;;9.98;4.55;;;;;;;16.97;100.00;101488.25;5061250;28;20810;-78
2023/07/06 06:51:56;;;;;;;11.02;4.57;;;;;;;17.66;100.00;101486.81;5042150;28;20029;-77
2023/07/06 06:54:21;;;;;;;9.43;3.75;;;;;;;18.40;100.00;101496.03;5058166;28;20043;-77
2023/07/06 06:56:47;;;;;;;6.05;3.28;;;;;;;18.40;100.00;101493.22;5056793;28;20366;-78
2023/07/06 06:59:13;;;;;;;11.45;4.05;;;;;;;18.73;99.48;101496.56;5065065;28;20476;-77
2023/07/06 07:01:40;;;;;;;14.55;5.88;;;;;;;18.80;98.66;101499.38;5058634;28;20028;-77
2023/07/06 07:04:09;;;;;;;9.38;3.65;;;;;;;18.79;98.76;101494.13;5054256;28;20098;-77
2023/07/06 07:06:35;;;;;;;11.05;3.85;;;;;;;19.13;96.05;101504.72;5063035;28;20021;-77
2023/07/06 07:09:02;;;;;;;9.70;3.22;;;;;;;19.12;96.06;101505.94;5060739;28;20069;-77
2023/07/06 07:11:28;;;;;;;5.75;3.47;;;;;;;19.04;96.13;101505.22;5059716;28;20028;-76
2023/07/06 07:13:53;;;;;;;10.18;3.53;;;;;;;19.12;95.36;101506.75;5052888;28;20389;-78
2023/07/06 07:16:20;;;;;;;8.43;3.92;;;;;;;18.95;97.14;101508.53;5060473;28;20094;-77
2023/07/06 07:18:47;;;;;;;10.90;4.28;;;;;;;19.00;95.64;101499.59;5060931;28;20031;-77
2023/07/06 07:21:14;;;;;;;20.38;4.25;;;;;;;19.10;95.78;101512.06;5060228;28;20903;-77
2023/07/06 07:23:45;;;;;;;6.68;3.38;;;;;;;19.21;94.94;101509.91;5057599;28;20044;-77
2023/07/06 07:26:16;;;;;;;8.70;3.60;;;;;;;19.45;93.39;101512.84;5064295;28;20059;-77
2023/07/06 07:28:42;;;;;;;9.90;3.75;;;;;;;19.12;95.76;101512.44;5051690;28;20037;-77
2023/07/06 07:31:11;;;;;;;10.63;4.03;;;;;;;19.38;93.61;101513.75;5053378;28;20071;-76
2023/07/06 07:33:37;;;;;;;10.02;4.10;;;;;;;19.49;93.03;101511.56;5056978;28;20024;-77
2023/07/06 07:36:03;;;;;;;8.45;3.95;;;;;;;19.47;93.01;101522.56;5059946;28;20028;-77
2023/07/06 07:38:29;;;;;;;5.40;2.95;;;;;;;19.23;94.30;101518.78;5065198;28;20040;-77
2023/07/06 07:40:57;;;;;;;7.10;3.15;;;;;;;19.51;92.88;101533.88;5059220;28;20047;-77
2023/07/06 07:43:27;;;;;;;7.43;4.07;;;;;;;18.87;96.46;101524.84;5062137;28;20085;-77
2023/07/06 07:46:03;;;;;;;6.03;2.72;;;;;;;19.40;93.89;101527.53;5062951;28;20426;-77
2023/07/06 07:48:30;;;;;;;5.00;3.03;;;;;;;19.54;92.51;101515.19;5075835;28;20028;-77
2023/07/06 07:51:01;;;;;;;10.27;3.78;;;;;;;19.38;93.45;101524.31;5052778;28;20029;-77
2023/07/06 07:53:27;;;;;;;9.68;4.30;;;;;;;18.93;96.44;101527.22;5054231;28;20419;-77
2023/07/06 07:55:54;;;;;;;5.78;2.67;;;;;;;19.70;91.84;101521.88;5057248;28;20050;-77
2023/07/06 07:58:22;;;;;;;8.70;4.00;;;;;;;19.53;92.96;101525.75;5051770;28;20034;-77
2023/07/06 08:00:49;;;;;;;12.60;4.10;;;;;;;19.76;91.54;101533.59;5050342;28;20032;-78
2023/07/06 08:03:15;;;;;;;5.43;2.70;;;;;;;19.83;91.21;101532.69;5041778;28;20532;-77
2023/07/06 08:05:41;;;;;;;7.00;3.28;;;;;;;19.76;91.22;101524.28;5058153;28;20033;-77
2023/07/06 08:08:07;;;;;;;6.57;3.35;;;;;;;19.44;94.25;101533.97;5061347;28;20439;-78
2023/07/06 08:10:38;;;;;;;7.35;2.95;;;;;;;19.59;93.16;101535.41;5062116;28;20111;-78
2023/07/06 08:13:06;;;;;;;11.35;3.13;;;;;;;19.48;93.07;101535.53;5062906;28;20076;-77
2023/07/06 08:15:31;;;;;;;6.43;3.00;;;;;;;19.19;94.98;101540.72;5051088;28;20082;-78
2023/07/06 08:18:00;;;;;;;9.98;3.10;;;;;;;19.42;94.00;101537.22;5073174;28;20025;-78
2023/07/06 08:20:28;;;;;;;11.05;3.80;;;;;;;19.15;94.65;101531.44;5060759;28;20043;-77
2023/07/06 08:22:57;;;;;;;9.30;3.20;;;;;;;19.67;92.22;101536.13;5067706;28;20090;-77
2023/07/06 08:25:25;;;;;;;8.15;2.95;;;;;;;20.10;89.56;101542.03;5054677;28;20432;-77
2023/07/06 08:27:51;;;;;;;7.68;2.83;;;;;;;19.81;91.05;101549.34;5057149;28;20028;-78
2023/07/06 08:30:20;;;;;;;10.88;3.15;;;;;;;19.86;91.09;101543.22;5055717;28;20519;-77
2023/07/06 08:32:48;;;;;;;6.75;2.88;;;;;;;19.67;91.87;101548.28;5070712;28;20029;-78
2023/07/06 08:35:15;;;;;;;5.03;2.70;;;;;;;19.44;92.23;101539.66;5058790;28;20127;-77
2023/07/06 08:37:40;;;;;;;6.90;2.75;;;;;;;19.93;90.12;101550.84;5063400;28;20036;-78
2023/07/06 08:40:11;;;;;;;6.72;2.60;;;;;;;20.03;89.45;101556.38;5055925;28;20985;-78
2023/07/06 08:42:37;;;;;;;5.82;2.60;;;;;;;19.54;91.80;101554.94;5066876;28;20036;-78
2023/07/06 08:45:03;;;;;;;9.23;3.40;;;;;;;19.38;89.91;101558.38;5060155;28;20052;-77
2023/07/06 08:47:29;;;;;;;6.15;3.20;;;;;;;19.42;91.92;101556.31;5062619;28;20042;-78
2023/07/06 08:49:56;;;;;;;7.07;3.10;;;;;;;19.42;91.84;101564.81;5055022;28;20385;-77
2023/07/06 08:52:23;;;;;;;5.80;2.58;;;;;;;19.72;90.18;101561.22;5058187;28;20028;-77
2023/07/06 08:54:51;;;;;;;6.00;3.35;;;;;;;19.58;89.89;101564.22;5058124;28;20362;-78
2023/07/06 08:57:21;;;;;;;7.43;3.05;;;;;;;19.67;91.34;101565.31;5053670;28;20386;-78
2023/07/06 08:59:48;;;;;;;5.15;2.40;;;;;;;19.42;92.61;101565.63;5058683;28;20500;-79
2023/07/06 09:02:23;;;;;;;11.18;3.05;;;;;;;19.04;90.48;101579.78;5055212;28;20024;-81
2023/07/06 09:04:51;;;;;;;9.82;3.25;;;;;;;19.01;91.38;101576.97;5064356;28;20120;-81
2023/07/06 09:07:21;;;;;;;8.45;2.60;;;;;;;19.13;90.69;101573.63;5062291;28;20023;-81
2023/07/06 09:09:48;;;;;;;5.97;2.92;;;;;;;19.21;88.15;101578.00;5063063;28;20119;-80
2023/07/06 09:12:36;;;;;;;7.15;3.55;;;;;;;19.10;90.10;101574.47;5061870;28;20055;-80
2023/07/06 09:15:03;;;;;;;6.30;2.35;;;;;;;19.24;88.71;101580.00;5055567;28;20048;-80
2023/07/06 09:17:29;;;;;;;8.95;3.00;;;;;;;19.01;88.67;101568.47;5078009;28;20481;-80
2023/07/06 09:19:56;;;;;;;12.18;3.35;;;;;;;19.28;87.13;101582.78;5064668;28;20077;-80
2023/07/06 09:22:23;;;;;;;6.97;2.50;;;;;;;19.58;84.75;101579.22;5058263;28;20044;-80
2023/07/06 09:24:49;;;;;;;7.90;2.33;;;;;;;19.40;85.49;101579.44;5060285;28;20039;-80
2023/07/06 09:27:23;;;;;;;6.00;2.00;;;;;;;19.41;83.80;101574.56;5060024;28;20025;-80
2023/07/06 09:30:07;;;;;;;5.07;2.28;;;;;;;19.58;82.89;101586.94;5065285;28;20082;-81
2023/07/06 09:32:33;;;;;;;6.90;2.40;;;;;;;19.48;81.31;101586.63;5076380;28;20032;-80
2023/07/06 09:35:20;;;;;;;6.30;2.45;;;;;;;19.73;83.24;101590.44;5062119;28;20070;-80
2023/07/06 09:37:47;;;;;;;10.15;4.25;;;;;;;19.68;79.56;101589.63;5055275;28;20044;-81
2023/07/06 09:40:14;;;;;;;4.78;2.72;;;;;;;19.92;80.05;101592.63;5064863;28;20032;-81
2023/07/06 09:42:41;;;;;;;4.50;2.05;;;;;;;20.04;81.05;101594.91;5057789;28;20040;-82
2023/07/06 09:45:24;;;;;;;5.28;2.25;;;;;;;19.84;77.65;101596.81;5061361;28;20028;-81
2023/07/06 09:47:55;;;;;;;13.43;2.85;;;;;;;20.02;77.32;101594.53;5058437;28;20392;-82
2023/07/06 09:50:27;;;;;;;3.42;1.92;;;;;;;20.19;76.56;101600.41;5061088;28;20400;-82
2023/07/06 09:52:54;;;;;;;6.40;2.00;;;;;;;20.21;75.59;101603.63;5065096;28;20032;-80
2023/07/06 09:55:25;;;;;;;3.35;2.03;;;;;;;20.01;74.61;101590.09;5067918;28;20035;-81
2023/07/06 09:57:51;;;;;;;5.88;2.10;;;;;;;20.37;73.70;101603.78;5062363;28;20024;-81
2023/07/06 10:00:22;;;;;;;4.10;2.10;;;;;;;20.33;73.62;101599.41;5064346;28;20089;-80
2023/07/06 10:03:11;;;;;;;5.13;2.00;;;;;;;20.30;75.00;101601.88;5057849;28;20550;-80
2023/07/06 10:05:49;;;;;;;3.50;2.00;;;;;;;20.36;72.86;101598.53;5061153;28;20033;-81
2023/07/06 10:08:18;;;;;;;5.03;2.10;;;;;;;20.50;73.78;101610.50;5055774;28;20091;-82
2023/07/06 10:10:53;;;;;;;4.95;1.92;;;;;;;20.60;72.22;101596.59;5057463;28;20116;-82
2023/07/06 10:13:58;;;;;;;8.85;2.53;;;;;;;20.65;70.20;101598.94;5055036;28;20102;-82
2023/07/06 10:16:28;;;;;;;5.07;2.75;;;;;;;21.00;68.73;101596.75;5044388;28;20053;-81
2023/07/06 10:19:21;;;;;;;4.85;2.22;;;;;;;20.65;71.35;101602.56;5056147;28;20116;-78
2023/07/06 10:22:04;;;;;;;3.33;2.38;;;;;;;19.87;74.77;101585.38;5060412;28;20032;-79
2023/07/06 10:24:47;;;;;;;5.35;2.35;;;;;;;19.93;75.32;101597.09;5049287;28;20059;-79
2023/07/06 10:27:35;;;;;;;;;;;;;;;19.78;79.75;101607.03;5064333;28;20055;-79
2023/07/06 10:30:08;;;;;;;6.93;2.47;;;;;;;19.80;77.97;101601.72;5056878;28;19913;-79
2023/07/06 10:32:40;;;;;;;3.90;2.17;;;;;;;19.77;79.33;101596.88;5062651;28;20488;-79
2023/07/06 10:35:19;;;;;;;3.67;2.17;;;;;;;19.75;75.78;101605.81;5057130;28;20060;-79
2023/07/06 10:37:46;;;;;;;6.47;2.67;;;;;;;19.67;81.71;101599.41;5062684;28;20029;-79
2023/07/06 10:40:29;;;;;;;4.43;2.55;;;;;;;19.66;85.20;101600.63;5059691;28;20032;-79
2023/07/06 10:43:20;;;;;;;3.40;2.78;;;;;;;19.50;75.30;101606.91;5061967;28;20028;-79
2023/07/06 10:45:51;;;;;;;5.47;3.17;;;;;;;19.78;76.80;101612.72;5056948;28;20066;-79
2023/07/06 10:48:34;;;;;;;4.10;2.88;;;;;;;19.91;80.37;101608.06;5062732;28;20509;-79
2023/07/06 10:51:22;;;;;;;4.30;3.38;;;;;;;20.05;82.14;101604.25;5060566;28;20029;-79
2023/07/06 10:54:16;;;;;;;7.65;3.90;;;;;;;19.95;76.88;101608.03;5062052;28;20109;-79
2023/07/06 10:56:47;;;;;;;7.28;3.92;;;;;;;20.08;76.16;101600.53;5051377;28;20038;-79
2023/07/06 10:59:24;;;;;;;8.30;4.03;;;;;;;19.77;77.32;101602.56;5058566;28;20378;-79
2023/07/06 11:02:11;;;;;;;5.93;3.42;;;;;;;20.00;77.16;101616.88;5063083;28;20035;-79
2023/07/06 11:04:40;;;;;;;9.40;4.07;;;;;;;19.85;82.36;101612.59;5061580;28;20509;-79
2023/07/06 11:07:29;;;;;;;7.07;3.67;;;;;;;19.72;77.83;101603.03;5059121;28;20031;-79
2023/07/06 11:10:31;;;;;;;4.47;3.33;;;;;;;19.92;79.21;101615.34;5053423;28;20037;-79
2023/07/06 11:13:04;;;;;;;6.88;3.72;;;;;;;20.21;76.40;101609.31;5027236;28;20133;-79
2023/07/06 11:15:32;;;;;;;6.85;3.25;;;;;;;20.17;76.35;101622.75;5056313;28;20028;-79
2023/07/06 11:18:11;;;;;;;4.68;3.30;;;;;;;20.19;77.51;101625.97;5058637;28;20448;-79
2023/07/06 11:20:42;;;;;;;7.78;3.53;;;;;;;20.33;79.21;101614.41;5054910;28;20385;-79
2023/07/06 11:23:13;;;;;;;5.43;3.03;;;;;;;20.93;75.91;101628.94;5060389;28;20028;-79
2023/07/06 11:25:39;;;;;;;6.15;2.92;;;;;;;21.30;64.63;101633.59;5057052;28;20481;-79
2023/07/06 11:28:07;;;;;;;5.85;3.55;;;;;;;21.56;69.92;101633.97;5055540;28;20040;-79
2023/07/06 11:30:59;;;;;;;6.70;3.05;;;;;;;21.10;70.85;101629.88;5056326;28;20063;-79
2023/07/06 11:33:53;;;;;;;6.82;4.30;;;;;;;21.02;70.83;101622.69;5062503;28;20527;-78